createdAt,value
2023-02-13T00:00:19.137Z,20.39
2023-02-13T00:02:45.876Z,20.09
2023-02-13T00:05:12.516Z,19.93
2023-02-13T00:07:39.416Z,19.79
2023-02-13T00:10:06.804Z,20.11
2023-02-13T00:12:33.548Z,20.06
2023-02-13T00:15:00.600Z,20.04
2023-02-13T00:17:27.485Z,20.18
2023-02-13T00:19:54.092Z,20.33
2023-02-13T00:22:20.761Z,20.39
2023-02-13T00:24:47.349Z,20.19
2023-02-13T00:27:14.236Z,20.18
2023-02-13T00:29:40.852Z,20.24
2023-02-13T00:32:07.594Z,20.22
2023-02-13T00:34:34.375Z,20.27
2023-02-13T00:37:03.352Z,20.35
2023-02-13T00:39:30.089Z,20.53
2023-02-13T00:41:56.692Z,20.28
2023-02-13T00:44:23.303Z,20.32
2023-02-13T00:46:49.967Z,20.47
2023-02-13T00:49:16.997Z,20.55
2023-02-13T00:51:43.690Z,20.61
2023-02-13T00:54:10.355Z,20.63
2023-02-13T00:56:37.225Z,20.48
2023-02-13T00:59:05.316Z,20.39
2023-02-13T01:01:32.442Z,20.30
2023-02-13T01:03:59.928Z,20.31
2023-02-13T01:06:27.808Z,20.06
2023-02-13T01:08:54.491Z,20.05
2023-02-13T01:11:21.223Z,20.05
2023-02-13T01:13:47.736Z,19.71
2023-02-13T01:16:17.803Z,19.83
2023-02-13T01:18:45.333Z,19.55
2023-02-13T01:21:18.314Z,19.58
2023-02-13T01:23:46.198Z,19.69
2023-02-13T01:26:19.438Z,19.79
2023-02-13T01:28:46.648Z,19.69
2023-02-13T01:31:13.411Z,19.87
2023-02-13T01:33:40.121Z,19.08
2023-02-13T01:36:11.851Z,19.36
2023-02-13T01:38:38.724Z,19.38
2023-02-13T01:41:05.673Z,19.38
2023-02-13T01:43:58.699Z,19.46
2023-02-13T01:46:35.754Z,19.64
2023-02-13T01:49:19.560Z,19.41
2023-02-13T01:51:49.600Z,19.40
2023-02-13T01:54:23.681Z,19.29
2023-02-13T01:56:55.332Z,19.30
2023-02-13T01:59:29.257Z,19.36
2023-02-13T02:01:58.700Z,19.53
2023-02-13T02:04:31.891Z,19.51
2023-02-13T02:07:03.284Z,19.47
2023-02-13T02:09:37.489Z,19.57
2023-02-13T02:12:22.474Z,19.56
2023-02-13T02:14:50.436Z,19.34
2023-02-13T02:17:18.805Z,19.47
2023-02-13T02:20:10.386Z,19.54
2023-02-13T02:22:55.181Z,19.25
2023-02-13T02:25:24.612Z,19.07
2023-02-13T02:28:22.550Z,18.87
2023-02-13T02:31:23.499Z,18.99
2023-02-13T02:33:59.358Z,19.10
2023-02-13T02:36:39.929Z,18.97
2023-02-13T02:39:17.374Z,18.92
2023-02-13T02:41:58.214Z,19.08
2023-02-13T02:44:47.857Z,19.14
2023-02-13T02:48:00.494Z,19.08
2023-02-13T02:50:35.674Z,19.24
2023-02-13T02:53:25.149Z,19.18
2023-02-13T02:56:10.677Z,19.03
2023-02-13T02:59:06.898Z,18.89
2023-02-13T03:01:54.633Z,18.89
2023-02-13T03:04:52.067Z,19.01
2023-02-13T03:07:19.737Z,18.83
2023-02-13T03:10:08.624Z,19.00
2023-02-13T03:13:04.125Z,19.15
2023-02-13T03:15:31.751Z,19.12
2023-02-13T03:18:18.007Z,19.28
2023-02-13T03:21:29.458Z,19.30
2023-02-13T03:24:22.583Z,19.25
2023-02-13T03:27:08.923Z,19.47
2023-02-13T03:30:07.439Z,19.50
2023-02-13T03:32:59.654Z,19.70
2023-02-13T03:36:01.665Z,19.61
2023-02-13T03:38:46.837Z,19.48
2023-02-13T03:41:20.176Z,19.56
2023-02-13T03:43:58.839Z,19.22
2023-02-13T03:46:28.978Z,19.22
2023-02-13T03:49:15.954Z,19.47
2023-02-13T03:51:49.235Z,19.34
2023-02-13T03:54:49.745Z,19.37
2023-02-13T03:57:39.023Z,19.19
2023-02-13T04:00:09.389Z,19.26
2023-02-13T04:02:54.344Z,19.40
2023-02-13T04:05:25.990Z,19.25
2023-02-13T04:07:52.769Z,19.72
2023-02-13T04:10:19.990Z,19.85
2023-02-13T04:13:09.604Z,19.92
2023-02-13T04:15:46.571Z,20.23
2023-02-13T04:18:25.604Z,20.17
2023-02-13T04:20:52.556Z,19.62
2023-02-13T04:23:19.834Z,18.03
2023-02-13T04:25:50.525Z,17.98
2023-02-13T04:28:17.412Z,17.94
2023-02-13T04:30:43.997Z,17.86
2023-02-13T04:33:10.632Z,17.82
2023-02-13T04:35:37.248Z,17.83
2023-02-13T04:38:04.679Z,17.82
2023-02-13T04:40:31.313Z,18.11
2023-02-13T04:42:58.396Z,18.71
2023-02-13T04:45:25.064Z,18.84
2023-02-13T04:47:53.979Z,18.72
2023-02-13T04:50:21.622Z,18.90
2023-02-13T04:52:53.049Z,18.68
2023-02-13T04:55:19.782Z,18.44
2023-02-13T04:57:46.465Z,17.90
2023-02-13T05:00:13.540Z,17.67
2023-02-13T05:02:40.098Z,17.73
2023-02-13T05:05:06.778Z,17.97
2023-02-13T05:07:33.299Z,17.69
2023-02-13T05:09:59.929Z,17.73
2023-02-13T05:12:26.592Z,17.77
2023-02-13T05:14:53.410Z,17.71
2023-02-13T05:17:20.106Z,17.68
2023-02-13T05:19:46.816Z,17.56
2023-02-13T05:22:32.192Z,17.93
2023-02-13T05:24:58.826Z,18.34
2023-02-13T05:27:25.408Z,18.59
2023-02-13T05:29:52.137Z,17.84
2023-02-13T05:32:18.845Z,17.78
2023-02-13T05:34:45.594Z,17.92
2023-02-13T05:37:12.321Z,18.02
2023-02-13T05:39:39.072Z,18.03
2023-02-13T05:42:05.927Z,17.84
2023-02-13T05:44:32.851Z,17.41
2023-02-13T05:46:59.629Z,17.31
2023-02-13T05:49:26.242Z,17.52
2023-02-13T05:51:52.849Z,17.85
2023-02-13T05:54:19.469Z,17.80
2023-02-13T05:56:46.844Z,18.34
2023-02-13T05:59:13.941Z,18.45
2023-02-13T06:01:40.836Z,18.44
2023-02-13T06:04:07.652Z,18.40
2023-02-13T06:06:34.335Z,18.13
2023-02-13T06:09:01.117Z,18.04
2023-02-13T06:11:27.655Z,18.18
2023-02-13T06:13:54.284Z,18.50
2023-02-13T06:16:21.067Z,18.51
2023-02-13T06:18:47.912Z,18.32
2023-02-13T06:21:14.534Z,18.48
2023-02-13T06:23:41.109Z,18.55
2023-02-13T06:26:09.042Z,18.54
2023-02-13T06:28:35.998Z,18.42
2023-02-13T06:31:03.003Z,18.41
2023-02-13T06:33:29.834Z,18.56
2023-02-13T06:35:56.498Z,18.41
2023-02-13T06:38:24.251Z,18.43
2023-02-13T06:40:51.113Z,18.66
2023-02-13T06:43:18.094Z,18.55
2023-02-13T06:45:46.815Z,18.29
2023-02-13T06:48:14.114Z,18.00
2023-02-13T06:50:40.840Z,17.86
2023-02-13T06:53:07.458Z,17.78
2023-02-13T06:55:34.121Z,17.76
2023-02-13T06:58:00.769Z,17.73
2023-02-13T07:00:27.502Z,17.74
2023-02-13T07:02:54.231Z,17.86
2023-02-13T07:05:20.830Z,17.95
2023-02-13T07:07:47.442Z,18.10
2023-02-13T07:10:14.648Z,18.08
2023-02-13T07:12:41.822Z,18.32
2023-02-13T07:15:09.162Z,18.28
2023-02-13T07:17:36.406Z,17.71
2023-02-13T07:20:04.569Z,17.53
2023-02-13T07:22:32.738Z,17.29
2023-02-13T07:25:00.001Z,17.27
2023-02-13T07:27:29.201Z,17.49
2023-02-13T07:29:58.724Z,17.70
2023-02-13T07:32:25.738Z,17.94
2023-02-13T07:35:01.674Z,17.58
2023-02-13T07:37:30.733Z,17.19
2023-02-13T07:39:57.465Z,17.34
2023-02-13T07:42:24.306Z,17.07
2023-02-13T07:44:50.858Z,16.99
2023-02-13T07:47:19.790Z,17.07
2023-02-13T07:49:46.777Z,17.07
2023-02-13T07:52:13.598Z,17.21
2023-02-13T07:54:47.039Z,17.28
2023-02-13T07:57:17.013Z,17.35
2023-02-13T07:59:43.762Z,17.45
2023-02-13T08:02:14.878Z,17.69
2023-02-13T08:04:46.067Z,17.56
2023-02-13T08:07:14.220Z,17.72
2023-02-13T08:09:59.563Z,17.86
2023-02-13T08:12:26.217Z,17.92
2023-02-13T08:14:53.625Z,18.29
2023-02-13T08:17:20.335Z,18.47
2023-02-13T08:19:47.057Z,18.41
2023-02-13T08:22:13.734Z,18.34
2023-02-13T08:24:40.653Z,18.09
2023-02-13T08:27:07.337Z,18.10
2023-02-13T08:29:34.510Z,17.88
2023-02-13T08:32:01.148Z,18.06
2023-02-13T08:34:27.702Z,18.19
2023-02-13T08:36:54.374Z,18.26
2023-02-13T08:39:21.432Z,18.33
2023-02-13T08:41:47.968Z,18.23
2023-02-13T08:44:14.487Z,17.96
2023-02-13T08:46:41.130Z,18.08
2023-02-13T08:49:07.680Z,17.95
2023-02-13T08:51:34.380Z,18.34
2023-02-13T08:54:01.010Z,18.66
2023-02-13T08:56:27.683Z,18.45
2023-02-13T08:58:54.961Z,18.04
2023-02-13T09:01:23.999Z,18.20
2023-02-13T09:03:50.533Z,18.64
2023-02-13T09:06:17.132Z,18.90
2023-02-13T09:08:43.821Z,19.07
2023-02-13T09:11:10.519Z,19.23
2023-02-13T09:13:37.224Z,19.10
2023-02-13T09:16:06.861Z,19.07
2023-02-13T09:18:35.102Z,19.01
2023-02-13T09:21:07.838Z,19.30
2023-02-13T09:23:37.421Z,19.36
2023-02-13T09:26:06.964Z,19.39
2023-02-13T09:28:35.631Z,19.25
2023-02-13T09:31:10.480Z,19.18
2023-02-13T09:33:37.700Z,18.91
2023-02-13T09:36:06.098Z,18.77
2023-02-13T09:38:33.564Z,18.72
2023-02-13T09:41:05.396Z,19.40
2023-02-13T09:43:41.023Z,19.32
2023-02-13T09:46:38.278Z,19.07
2023-02-13T09:49:18.691Z,19.06
2023-02-13T09:51:54.026Z,19.12
2023-02-13T09:54:21.102Z,19.00
2023-02-13T09:57:27.978Z,18.82
2023-02-13T10:00:19.587Z,18.70
2023-02-13T10:02:58.338Z,19.18
2023-02-13T10:05:46.717Z,19.60
2023-02-13T10:08:37.989Z,19.33
2023-02-13T10:11:25.774Z,19.35
2023-02-13T10:14:10.476Z,19.51
2023-02-13T10:17:10.905Z,20.05
2023-02-13T10:19:44.478Z,20.57
2023-02-13T10:22:15.952Z,21.01
2023-02-13T10:24:51.715Z,20.84
2023-02-13T10:27:25.801Z,20.34
2023-02-13T10:30:09.101Z,20.53
2023-02-13T10:33:11.288Z,21.02
2023-02-13T10:35:39.251Z,21.58
2023-02-13T10:38:18.641Z,21.48
2023-02-13T10:41:23.558Z,21.05
2023-02-13T10:44:10.788Z,21.20
2023-02-13T10:46:55.862Z,21.45
2023-02-13T10:49:35.795Z,21.82
2023-02-13T10:52:17.920Z,21.30
2023-02-13T10:54:47.914Z,20.99
2023-02-13T10:57:24.620Z,20.94
2023-02-13T10:59:57.386Z,20.79
2023-02-13T11:02:29.762Z,21.04
2023-02-13T11:05:11.427Z,20.93
2023-02-13T11:07:39.676Z,20.63
2023-02-13T11:10:18.284Z,20.67
2023-02-13T11:12:45.690Z,20.81
2023-02-13T11:15:32.768Z,20.89
2023-02-13T11:18:11.809Z,20.99
2023-02-13T11:20:44.407Z,21.47
2023-02-13T11:23:32.343Z,20.88
2023-02-13T11:26:28.325Z,21.27
2023-02-13T11:28:57.693Z,21.68
2023-02-13T11:31:31.548Z,21.42
2023-02-13T11:34:17.302Z,21.49
2023-02-13T11:36:44.159Z,21.35
2023-02-13T11:39:22.519Z,21.49
2023-02-13T11:41:50.877Z,21.59
2023-02-13T11:44:26.248Z,21.37
2023-02-13T11:46:54.202Z,21.24
2023-02-13T11:49:35.103Z,21.54
2023-02-13T11:52:05.294Z,21.24
2023-02-13T11:54:36.725Z,21.23
2023-02-13T11:57:21.875Z,21.12
2023-02-13T11:59:51.392Z,21.00
2023-02-13T12:02:21.002Z,20.98
2023-02-13T12:04:50.194Z,20.61
2023-02-13T12:07:24.775Z,20.56
2023-02-13T12:09:58.569Z,20.69
2023-02-13T12:12:32.855Z,20.71
2023-02-13T12:15:03.657Z,20.65
2023-02-13T12:17:32.478Z,20.85
2023-02-13T12:20:00.259Z,21.28
2023-02-13T12:22:45.200Z,21.47
2023-02-13T12:25:25.842Z,21.63
2023-02-13T12:28:12.679Z,21.50
2023-02-13T12:31:00.031Z,21.74
2023-02-13T12:33:59.352Z,21.58
2023-02-13T12:36:45.044Z,21.64
2023-02-13T12:39:17.893Z,21.62
2023-02-13T12:42:04.794Z,21.61
2023-02-13T12:44:43.178Z,21.47
2023-02-13T12:47:23.840Z,21.28
2023-02-13T12:50:28.666Z,21.16
2023-02-13T12:53:23.250Z,21.16
2023-02-13T12:56:40.892Z,21.17
2023-02-13T12:59:25.667Z,21.14
2023-02-13T13:02:11.567Z,21.39
2023-02-13T13:04:47.951Z,21.28
2023-02-13T13:07:23.575Z,21.47
2023-02-13T13:09:55.566Z,21.40
2023-02-13T13:12:33.042Z,21.35
2023-02-13T13:15:23.624Z,21.19
2023-02-13T13:18:14.085Z,21.19
2023-02-13T13:21:00.042Z,21.01
2023-02-13T13:23:50.116Z,21.00
2023-02-13T13:26:21.251Z,20.97
2023-02-13T13:28:52.586Z,21.32
2023-02-13T13:31:21.202Z,21.36
2023-02-13T13:33:48.284Z,21.54
2023-02-13T13:36:33.202Z,21.47
2023-02-13T13:39:36.831Z,21.38
2023-02-13T13:42:13.353Z,21.24
2023-02-13T13:45:28.547Z,21.67
2023-02-13T13:48:06.208Z,21.66
2023-02-13T13:50:37.594Z,21.63
2023-02-13T13:53:09.038Z,21.75
2023-02-13T13:55:48.444Z,21.85
2023-02-13T13:58:40.750Z,21.45
2023-02-13T14:01:29.640Z,21.55
2023-02-13T14:04:04.641Z,21.70
2023-02-13T14:06:43.302Z,22.44
2023-02-13T14:09:43.464Z,22.50
2023-02-13T14:12:37.165Z,22.45
2023-02-13T14:15:04.130Z,22.58
2023-02-13T14:18:01.279Z,22.45
2023-02-13T14:20:33.732Z,22.96
2023-02-13T14:23:33.871Z,22.86
2023-02-13T14:26:11.044Z,22.48
2023-02-13T14:28:39.746Z,22.91
2023-02-13T14:31:25.049Z,22.89
2023-02-13T14:34:10.639Z,23.02
2023-02-13T14:36:46.689Z,22.99
2023-02-13T14:39:26.717Z,22.97
2023-02-13T14:41:56.464Z,22.88
2023-02-13T14:44:33.844Z,22.83
2023-02-13T14:47:05.171Z,23.04
2023-02-13T14:49:36.676Z,23.17
2023-02-13T14:52:07.312Z,22.74
2023-02-13T14:54:42.094Z,22.87
2023-02-13T14:57:20.017Z,22.81
2023-02-13T14:59:50.245Z,22.76
2023-02-13T15:02:26.385Z,22.91
2023-02-13T15:05:02.295Z,23.07
2023-02-13T15:07:40.023Z,23.19
2023-02-13T15:10:31.946Z,23.05
2023-02-13T15:13:00.748Z,22.82
2023-02-13T15:15:31.990Z,22.75
2023-02-13T15:18:07.643Z,22.85
2023-02-13T15:20:37.584Z,22.96
2023-02-13T15:23:09.430Z,23.00
2023-02-13T15:25:41.003Z,22.83
2023-02-13T15:28:16.972Z,22.48
2023-02-13T15:30:53.927Z,22.29
2023-02-13T15:33:22.913Z,22.39
2023-02-13T15:36:01.440Z,22.55
2023-02-13T15:38:34.534Z,22.31
2023-02-13T15:41:12.106Z,22.37
2023-02-13T15:43:48.307Z,22.18
2023-02-13T15:46:20.710Z,21.90
2023-02-13T15:48:47.872Z,21.88
2023-02-13T15:51:25.266Z,21.94
2023-02-13T15:54:00.588Z,21.88
2023-02-13T15:56:27.536Z,21.82
2023-02-13T15:58:55.909Z,21.85
2023-02-13T16:01:23.277Z,21.91
2023-02-13T16:03:54.103Z,21.85
2023-02-13T16:06:24.930Z,21.66
2023-02-13T16:08:57.633Z,21.59
2023-02-13T16:11:24.492Z,21.49
2023-02-13T16:14:03.311Z,21.77
2023-02-13T16:16:44.075Z,21.91
2023-02-13T16:19:36.028Z,21.85
2023-02-13T16:22:31.095Z,21.83
2023-02-13T16:25:28.838Z,21.54
2023-02-13T16:27:58.936Z,21.36
2023-02-13T16:30:35.851Z,21.07
2023-02-13T16:33:15.043Z,20.98
2023-02-13T16:35:49.008Z,20.97
2023-02-13T16:38:27.626Z,21.03
2023-02-13T16:40:55.773Z,20.77
2023-02-13T16:43:51.582Z,20.92
2023-02-13T16:46:22.769Z,20.89
2023-02-13T16:49:01.456Z,20.51
2023-02-13T16:51:54.105Z,20.43
2023-02-13T16:55:02.305Z,20.26
2023-02-13T16:57:34.461Z,20.28
2023-02-13T17:00:22.630Z,20.21
2023-02-13T17:02:50.836Z,20.01
2023-02-13T17:05:27.708Z,20.02
2023-02-13T17:08:01.289Z,20.00
2023-02-13T17:10:37.990Z,19.97
2023-02-13T17:13:13.303Z,19.76
2023-02-13T17:15:45.224Z,19.64
2023-02-13T17:18:12.427Z,19.75
2023-02-13T17:20:43.167Z,19.59
2023-02-13T17:23:20.701Z,19.70
2023-02-13T17:25:51.213Z,19.89
2023-02-13T17:28:26.452Z,20.02
2023-02-13T17:30:56.573Z,19.84
2023-02-13T17:33:26.338Z,19.78
2023-02-13T17:35:53.416Z,20.08
2023-02-13T17:38:20.594Z,20.02
2023-02-13T17:40:47.745Z,20.02
2023-02-13T17:43:17.042Z,20.08
2023-02-13T17:45:44.027Z,20.15
2023-02-13T17:48:10.682Z,19.91
2023-02-13T17:50:38.172Z,19.81
2023-02-13T17:53:07.582Z,19.96
2023-02-13T17:55:35.356Z,19.99
2023-02-13T17:58:02.417Z,20.03
2023-02-13T18:00:32.655Z,20.37
2023-02-13T18:03:00.519Z,20.30
2023-02-13T18:05:28.705Z,20.12
2023-02-13T18:07:55.772Z,20.22
2023-02-13T18:10:26.030Z,19.99
2023-02-13T18:12:53.952Z,20.06
2023-02-13T18:15:21.382Z,20.03
2023-02-13T18:17:48.266Z,19.83
2023-02-13T18:20:18.038Z,19.53
2023-02-13T18:22:44.709Z,19.23
2023-02-13T18:25:11.522Z,18.92
2023-02-13T18:27:38.358Z,19.41
2023-02-13T18:30:06.456Z,19.46
2023-02-13T18:32:33.684Z,19.13
2023-02-13T18:35:00.994Z,19.17
2023-02-13T18:37:29.408Z,19.04
2023-02-13T18:39:56.905Z,19.07
2023-02-13T18:42:23.569Z,19.07
2023-02-13T18:44:50.304Z,18.99
2023-02-13T18:47:17.464Z,18.88
2023-02-13T18:49:46.251Z,18.96
2023-02-13T18:52:13.336Z,18.77
2023-02-13T18:54:39.938Z,19.07
2023-02-13T18:57:06.948Z,19.07
2023-02-13T18:59:33.607Z,19.21
2023-02-13T19:02:02.110Z,19.13
2023-02-13T19:04:29.761Z,19.16
2023-02-13T19:06:56.457Z,19.09
2023-02-13T19:09:23.018Z,18.93
2023-02-13T19:11:49.809Z,19.12
2023-02-13T19:14:16.437Z,18.98
2023-02-13T19:16:43.166Z,18.85
2023-02-13T19:19:10.365Z,18.88
2023-02-13T19:21:38.407Z,19.08
2023-02-13T19:24:08.620Z,18.75
2023-02-13T19:26:35.449Z,18.54
2023-02-13T19:29:02.054Z,18.37
2023-02-13T19:31:30.701Z,17.91
2023-02-13T19:33:57.478Z,18.05
2023-02-13T19:36:26.321Z,18.39
2023-02-13T19:38:55.321Z,18.60
2023-02-13T19:41:21.909Z,18.43
2023-02-13T19:43:53.170Z,18.57
2023-02-13T19:46:22.910Z,18.59
2023-02-13T19:48:50.524Z,18.71
2023-02-13T19:51:19.943Z,18.89
2023-02-13T19:53:47.097Z,19.11
2023-02-13T19:56:14.617Z,18.76
2023-02-13T19:58:42.446Z,18.56
2023-02-13T20:01:11.185Z,18.61
2023-02-13T20:03:37.821Z,18.80
2023-02-13T20:06:09.726Z,19.01
2023-02-13T20:08:36.752Z,18.87
2023-02-13T20:11:05.863Z,18.84
2023-02-13T20:13:32.519Z,18.96
2023-02-13T20:15:59.187Z,19.11
2023-02-13T20:18:25.940Z,18.68
2023-02-13T20:20:52.468Z,18.67
2023-02-13T20:23:19.993Z,18.91
2023-02-13T20:25:46.589Z,18.92
2023-02-13T20:28:13.339Z,18.57
2023-02-13T20:30:44.368Z,18.79
2023-02-13T20:33:11.127Z,18.75
2023-02-13T20:35:37.612Z,18.79
2023-02-13T20:38:04.643Z,18.67
2023-02-13T20:40:31.240Z,18.25
2023-02-13T20:42:58.029Z,18.04
2023-02-13T20:45:25.124Z,18.18
2023-02-13T20:47:51.788Z,18.47
2023-02-13T20:50:18.762Z,18.47
2023-02-13T20:52:45.384Z,18.38
2023-02-13T20:55:11.925Z,18.15
2023-02-13T20:57:38.845Z,18.13
2023-02-13T21:00:07.232Z,17.74
2023-02-13T21:02:33.889Z,17.59
2023-02-13T21:05:00.764Z,17.54
2023-02-13T21:07:27.348Z,17.55
2023-02-13T21:09:53.964Z,17.50
2023-02-13T21:12:20.709Z,17.37
2023-02-13T21:14:47.285Z,16.90
2023-02-13T21:17:13.945Z,16.02
2023-02-13T21:19:41.681Z,16.11
2023-02-13T21:22:12.041Z,16.41
2023-02-13T21:24:40.996Z,16.81
2023-02-13T21:27:08.769Z,17.11
2023-02-13T21:29:35.939Z,16.99
2023-02-13T21:32:03.277Z,17.35
2023-02-13T21:34:30.386Z,17.03
2023-02-13T21:36:57.012Z,16.81
2023-02-13T21:39:23.738Z,16.48
2023-02-13T21:41:50.430Z,16.89
2023-02-13T21:44:17.128Z,16.90
2023-02-13T21:46:45.160Z,16.94
2023-02-13T21:49:14.737Z,16.81
2023-02-13T21:51:42.006Z,16.36
2023-02-13T21:54:09.508Z,16.09
2023-02-13T21:56:39.008Z,16.17
2023-02-13T21:59:06.234Z,16.42
2023-02-13T22:01:44.767Z,16.16
2023-02-13T22:04:11.449Z,16.42
2023-02-13T22:06:39.777Z,16.55
2023-02-13T22:09:09.478Z,16.48
2023-02-13T22:11:36.788Z,16.25
2023-02-13T22:14:05.266Z,16.63
2023-02-13T22:16:37.278Z,16.33
2023-02-13T22:19:05.391Z,16.17
2023-02-13T22:21:33.204Z,16.28
2023-02-13T22:24:00.605Z,16.60
2023-02-13T22:26:45.370Z,16.74
2023-02-13T22:29:14.678Z,17.01
2023-02-13T22:31:41.658Z,16.89
2023-02-13T22:34:13.242Z,16.76
2023-02-13T22:36:41.046Z,16.86
2023-02-13T22:39:09.334Z,16.83
2023-02-13T22:41:36.579Z,16.89
2023-02-13T22:44:03.482Z,16.70
2023-02-13T22:46:32.248Z,17.29
2023-02-13T22:48:59.630Z,16.81
2023-02-13T22:51:32.603Z,16.15
2023-02-13T22:53:59.894Z,16.25
2023-02-13T22:56:28.511Z,16.48
2023-02-13T22:58:55.189Z,16.58
2023-02-13T23:01:23.891Z,16.57
2023-02-13T23:03:50.702Z,16.28
2023-02-13T23:06:18.590Z,15.98
2023-02-13T23:08:48.855Z,15.95
2023-02-13T23:11:35.558Z,15.13
2023-02-13T23:14:02.904Z,15.44
2023-02-13T23:16:52.769Z,15.54
2023-02-13T23:19:20.730Z,15.56
2023-02-13T23:21:47.338Z,15.68
2023-02-13T23:24:13.988Z,15.70
2023-02-13T23:26:40.511Z,15.37
2023-02-13T23:29:07.050Z,15.46
2023-02-13T23:31:33.690Z,15.34
2023-02-13T23:34:00.311Z,15.14
2023-02-13T23:36:26.831Z,15.19
2023-02-13T23:38:53.430Z,15.29
2023-02-13T23:41:20.236Z,14.98
2023-02-13T23:43:46.807Z,14.83
2023-02-13T23:46:13.505Z,14.91
2023-02-13T23:48:40.237Z,14.84
2023-02-13T23:51:06.806Z,14.70
2023-02-13T23:53:36.776Z,14.44
2023-02-13T23:56:04.447Z,14.42
2023-02-13T23:58:31.143Z,14.30
